sensor_id;sensor_type;location;lat;lon;timestamp;pressure;altitude;pressure_sealevel;temperature;humidity
20017;BME280;10169;42.664;23.610;2023-04-28T00:00:46;95476.00;;;5.04;100.00
20017;BME280;10169;42.664;23.610;2023-04-28T00:02:46;95471.91;;;4.89;100.00
20017;BME280;10169;42.664;23.610;2023-04-28T00:04:47;95469.47;;;4.68;100.00
20017;BME280;10169;42.664;23.610;2023-04-28T00:06:47;95483.81;;;4.65;100.00
20017;BME280;10169;42.664;23.610;2023-04-28T00:08:48;95476.47;;;4.41;100.00
20017;BME280;10169;42.664;23.610;2023-04-28T00:10:48;95478.22;;;4.21;100.00
20017;BME280;10169;42.664;23.610;2023-04-28T00:12:48;95480.72;;;4.01;100.00
20017;BME280;10169;42.664;23.610;2023-04-28T00:14:49;95481.66;;;3.87;100.00
20017;BME280;10169;42.664;23.610;2023-04-28T00:16:49;95487.75;;;3.88;100.00
20017;BME280;10169;42.664;23.610;2023-04-28T00:18:49;95488.69;;;3.80;100.00
20017;BME280;10169;42.664;23.610;2023-04-28T00:20:50;95492.31;;;3.79;100.00
20017;BME280;10169;42.664;23.610;2023-04-28T00:22:50;95491.34;;;3.80;100.00
20017;BME280;10169;42.664;23.610;2023-04-28T00:24:50;95494.34;;;3.77;100.00
20017;BME280;10169;42.664;23.610;2023-04-28T00:26:51;95491.56;;;3.85;100.00
20017;BME280;10169;42.664;23.610;2023-04-28T00:28:51;95491.19;;;3.95;100.00
20017;BME280;10169;42.664;23.610;2023-04-28T00:30:51;95487.16;;;3.92;100.00
20017;BME280;10169;42.664;23.610;2023-04-28T00:32:52;95492.44;;;3.92;100.00
20017;BME280;10169;42.664;23.610;2023-04-28T00:34:52;95491.34;;;3.80;100.00
20017;BME280;10169;42.664;23.610;2023-04-28T00:36:52;95497.75;;;3.71;100.00
20017;BME280;10169;42.664;23.610;2023-04-28T00:38:53;95500.53;;;3.63;100.00
20017;BME280;10169;42.664;23.610;2023-04-28T00:40:53;95495.44;;;3.61;100.00
20017;BME280;10169;42.664;23.610;2023-04-28T00:42:53;95504.75;;;3.64;100.00
20017;BME280;10169;42.664;23.610;2023-04-28T00:44:54;95499.84;;;3.54;100.00
20017;BME280;10169;42.664;23.610;2023-04-28T00:46:54;95502.25;;;3.49;100.00
20017;BME280;10169;42.664;23.610;2023-04-28T00:48:55;95504.09;;;3.55;100.00
20017;BME280;10169;42.664;23.610;2023-04-28T00:50:56;95501.81;;;3.46;100.00
20017;BME280;10169;42.664;23.610;2023-04-28T00:52:56;95505.81;;;3.42;100.00
20017;BME280;10169;42.664;23.610;2023-04-28T00:54:57;95509.06;;;3.44;100.00
20017;BME280;10169;42.664;23.610;2023-04-28T00:56:58;95505.66;;;3.50;100.00
20017;BME280;10169;42.664;23.610;2023-04-28T00:58:58;95499.50;;;3.64;100.00
20017;BME280;10169;42.664;23.610;2023-04-28T01:01:05;95504.53;;;3.59;100.00
20017;BME280;10169;42.664;23.610;2023-04-28T01:03:06;95516.06;;;3.58;100.00
20017;BME280;10169;42.664;23.610;2023-04-28T01:05:07;95511.78;;;3.57;100.00
20017;BME280;10169;42.664;23.610;2023-04-28T01:07:08;95516.19;;;3.50;100.00
20017;BME280;10169;42.664;23.610;2023-04-28T01:09:08;95520.59;;;3.43;100.00
20017;BME280;10169;42.664;23.610;2023-04-28T01:11:08;95516.31;;;3.42;100.00
20017;BME280;10169;42.664;23.610;2023-04-28T01:13:13;95515.97;;;3.45;100.00
20017;BME280;10169;42.664;23.610;2023-04-28T01:15:16;95514.31;;;3.44;100.00
20017;BME280;10169;42.664;23.610;2023-04-28T01:17:17;95515.97;;;3.45;100.00
20017;BME280;10169;42.664;23.610;2023-04-28T01:19:21;95515.19;;;3.51;100.00
20017;BME280;10169;42.664;23.610;2023-04-28T01:21:28;95512.56;;;3.51;100.00
20017;BME280;10169;42.664;23.610;2023-04-28T01:23:31;95514.81;;;3.54;100.00
20017;BME280;10169;42.664;23.610;2023-04-28T01:25:31;95514.00;;;3.53;100.00
20017;BME280;10169;42.664;23.610;2023-04-28T01:27:32;95515.53;;;3.69;100.00
20017;BME280;10169;42.664;23.610;2023-04-28T01:29:32;95512.06;;;3.68;100.00
20017;BME280;10169;42.664;23.610;2023-04-28T01:31:32;95514.75;;;3.75;100.00
20017;BME280;10169;42.664;23.610;2023-04-28T01:33:32;95513.34;;;3.79;100.00
20017;BME280;10169;42.664;23.610;2023-04-28T01:35:33;95519.06;;;3.83;100.00
20017;BME280;10169;42.664;23.610;2023-04-28T01:37:33;95513.31;;;3.73;100.00
20017;BME280;10169;42.664;23.610;2023-04-28T01:39:33;95514.50;;;3.70;100.00
20017;BME280;10169;42.664;23.610;2023-04-28T01:41:34;95515.22;;;3.57;100.00
20017;BME280;10169;42.664;23.610;2023-04-28T01:43:35;95520.19;;;3.46;100.00
20017;BME280;10169;42.664;23.610;2023-04-28T01:45:35;95510.41;;;3.33;100.00
20017;BME280;10169;42.664;23.610;2023-04-28T01:47:35;95515.34;;;3.22;100.00
20017;BME280;10169;42.664;23.610;2023-04-28T01:49:36;95513.94;;;2.98;100.00
20017;BME280;10169;42.664;23.610;2023-04-28T01:51:36;95514.03;;;2.90;100.00
20017;BME280;10169;42.664;23.610;2023-04-28T01:53:36;95516.34;;;2.78;100.00
20017;BME280;10169;42.664;23.610;2023-04-28T01:55:37;95507.75;;;2.84;100.00
20017;BME280;10169;42.664;23.610;2023-04-28T01:57:37;95510.09;;;3.01;100.00
20017;BME280;10169;42.664;23.610;2023-04-28T01:59:38;95516.91;;;3.16;100.00
20017;BME280;10169;42.664;23.610;2023-04-28T02:01:38;95511.66;;;3.16;100.00
20017;BME280;10169;42.664;23.610;2023-04-28T02:03:38;95508.47;;;3.00;100.00
20017;BME280;10169;42.664;23.610;2023-04-28T02:05:39;95531.03;;;2.94;100.00
20017;BME280;10169;42.664;23.610;2023-04-28T02:07:39;95530.97;;;2.87;100.00
20017;BME280;10169;42.664;23.610;2023-04-28T02:09:40;95527.72;;;2.85;100.00
20017;BME280;10169;42.664;23.610;2023-04-28T02:11:40;95528.66;;;2.78;100.00
20017;BME280;10169;42.664;23.610;2023-04-28T02:13:40;95525.97;;;2.92;100.00
20017;BME280;10169;42.664;23.610;2023-04-28T02:15:41;95523.16;;;2.94;100.00
20017;BME280;10169;42.664;23.610;2023-04-28T02:17:42;95524.19;;;2.93;100.00
20017;BME280;10169;42.664;23.610;2023-04-28T02:19:42;95521.16;;;2.96;100.00
20017;BME280;10169;42.664;23.610;2023-04-28T02:21:42;95530.88;;;2.96;100.00
20017;BME280;10169;42.664;23.610;2023-04-28T02:23:43;95532.59;;;2.88;100.00
20017;BME280;10169;42.664;23.610;2023-04-28T02:25:43;95531.03;;;2.94;100.00
20017;BME280;10169;42.664;23.610;2023-04-28T02:27:43;95536.06;;;2.89;100.00
20017;BME280;10169;42.664;23.610;2023-04-28T02:29:43;95535.50;;;2.93;100.00
20017;BME280;10169;42.664;23.610;2023-04-28T02:31:44;95540.34;;;2.97;100.00
20017;BME280;10169;42.664;23.610;2023-04-28T02:33:44;95536.13;;;2.96;100.00
20017;BME280;10169;42.664;23.610;2023-04-28T02:35:44;95538.91;;;2.94;100.00
20017;BME280;10169;42.664;23.610;2023-04-28T02:37:45;95540.47;;;2.88;100.00
20017;BME280;10169;42.664;23.610;2023-04-28T02:39:45;95539.53;;;2.96;100.00
20017;BME280;10169;42.664;23.610;2023-04-28T02:41:46;95536.13;;;2.96;100.00
20017;BME280;10169;42.664;23.610;2023-04-28T02:43:46;95547.88;;;3.00;100.00
20017;BME280;10169;42.664;23.610;2023-04-28T02:45:47;95541.03;;;3.05;100.00
20017;BME280;10169;42.664;23.610;2023-04-28T02:47:47;95544.28;;;3.07;100.00
20017;BME280;10169;42.664;23.610;2023-04-28T02:49:47;95548.00;;;3.13;100.00
20017;BME280;10169;42.664;23.610;2023-04-28T02:51:47;95550.25;;;3.16;100.00
20017;BME280;10169;42.664;23.610;2023-04-28T02:53:48;95541.09;;;3.12;100.00
20017;BME280;10169;42.664;23.610;2023-04-28T02:55:48;95547.78;;;3.14;100.00
20017;BME280;10169;42.664;23.610;2023-04-28T02:57:48;95542.69;;;3.06;100.00
20017;BME280;10169;42.664;23.610;2023-04-28T02:59:49;95553.88;;;3.15;100.00
20017;BME280;10169;42.664;23.610;2023-04-28T03:01:49;95554.06;;;3.13;100.00
20017;BME280;10169;42.664;23.610;2023-04-28T03:03:50;95555.66;;;3.14;100.00
20017;BME280;10169;42.664;23.610;2023-04-28T03:05:51;95556.69;;;3.13;100.00
20017;BME280;10169;42.664;23.610;2023-04-28T03:07:51;95559.25;;;3.07;100.00
20017;BME280;10169;42.664;23.610;2023-04-28T03:09:51;95561.41;;;2.82;100.00
20017;BME280;10169;42.664;23.610;2023-04-28T03:11:52;95568.91;;;2.35;100.00
20017;BME280;10169;42.664;23.610;2023-04-28T03:13:52;95581.47;;;1.81;100.00
20017;BME280;10169;42.664;23.610;2023-04-28T03:15:52;95582.00;;;1.39;100.00
20017;BME280;10169;42.664;23.610;2023-04-28T03:17:53;95582.25;;;1.29;100.00
20017;BME280;10169;42.664;23.610;2023-04-28T03:19:53;95592.94;;;1.20;100.00
20017;BME280;10169;42.664;23.610;2023-04-28T03:21:53;95589.47;;;1.05;100.00
20017;BME280;10169;42.664;23.610;2023-04-28T03:23:53;95589.47;;;1.05;100.00
20017;BME280;10169;42.664;23.610;2023-04-28T03:25:54;95593.56;;;0.99;100.00
20017;BME280;10169;42.664;23.610;2023-04-28T03:27:54;95592.94;;;0.97;100.00
20017;BME280;10169;42.664;23.610;2023-04-28T03:29:55;95594.91;;;0.95;100.00
20017;BME280;10169;42.664;23.610;2023-04-28T03:31:55;95599.50;;;0.93;100.00
20017;BME280;10169;42.664;23.610;2023-04-28T03:33:55;95604.09;;;0.91;100.00
20017;BME280;10169;42.664;23.610;2023-04-28T03:35:57;95604.81;;;0.85;100.00
20017;BME280;10169;42.664;23.610;2023-04-28T03:37:57;95607.25;;;0.87;100.00
20017;BME280;10169;42.664;23.610;2023-04-28T03:39:58;95617.53;;;0.88;100.00
20017;BME280;10169;42.664;23.610;2023-04-28T03:41:58;95613.28;;;0.87;100.00
20017;BME280;10169;42.664;23.610;2023-04-28T03:43:58;95614.19;;;0.94;100.00
20017;BME280;10169;42.664;23.610;2023-04-28T03:45:59;95621.38;;;1.00;100.00
20017;BME280;10169;42.664;23.610;2023-04-28T03:47:59;95624.47;;;1.04;100.00
20017;BME280;10169;42.664;23.610;2023-04-28T03:49:59;95632.16;;;1.05;100.00
20017;BME280;10169;42.664;23.610;2023-04-28T03:52:00;95628.50;;;1.14;100.00
20017;BME280;10169;42.664;23.610;2023-04-28T03:54:00;95617.31;;;0.98;100.00
20017;BME280;10169;42.664;23.610;2023-04-28T03:56:01;95640.91;;;1.12;100.00
20017;BME280;10169;42.664;23.610;2023-04-28T03:58:01;95646.16;;;0.90;100.00
20017;BME280;10169;42.664;23.610;2023-04-28T04:00:02;95644.56;;;0.81;100.00
20017;BME280;10169;42.664;23.610;2023-04-28T04:02:02;95649.31;;;0.77;100.00
20017;BME280;10169;42.664;23.610;2023-04-28T04:04:03;95651.91;;;0.85;100.00
20017;BME280;10169;42.664;23.610;2023-04-28T04:06:03;95651.84;;;0.93;100.00
20017;BME280;10169;42.664;23.610;2023-04-28T04:08:04;95656.69;;;1.04;100.00
20017;BME280;10169;42.664;23.610;2023-04-28T04:10:05;95660.19;;;1.19;100.00
20017;BME280;10169;42.664;23.610;2023-04-28T04:12:05;95665.72;;;1.24;100.00
20017;BME280;10169;42.664;23.610;2023-04-28T04:14:06;95664.97;;;1.38;100.00
20017;BME280;10169;42.664;23.610;2023-04-28T04:16:07;95671.50;;;1.42;100.00
20017;BME280;10169;42.664;23.610;2023-04-28T04:18:07;95673.72;;;1.54;100.00
20017;BME280;10169;42.664;23.610;2023-04-28T04:20:07;95666.50;;;1.56;100.00
20017;BME280;10169;42.664;23.610;2023-04-28T04:22:08;95671.28;;;1.52;100.00
20017;BME280;10169;42.664;23.610;2023-04-28T04:24:08;95675.91;;;1.65;100.00
20017;BME280;10169;42.664;23.610;2023-04-28T04:26:08;95678.84;;;1.70;100.00
20017;BME280;10169;42.664;23.610;2023-04-28T04:28:09;95675.19;;;1.93;100.00
20017;BME280;10169;42.664;23.610;2023-04-28T04:30:09;95678.66;;;2.08;100.00
20017;BME280;10169;42.664;23.610;2023-04-28T04:32:10;95677.56;;;2.17;100.00
20017;BME280;10169;42.664;23.610;2023-04-28T04:34:12;95674.19;;;2.46;100.00
20017;BME280;10169;42.664;23.610;2023-04-28T04:36:12;95678.34;;;2.41;100.00
20017;BME280;10169;42.664;23.610;2023-04-28T04:38:12;95679.06;;;2.49;100.00
20017;BME280;10169;42.664;23.610;2023-04-28T04:40:13;95684.13;;;2.36;100.00
20017;BME280;10169;42.664;23.610;2023-04-28T04:42:13;95688.00;;;2.40;100.00
20017;BME280;10169;42.664;23.610;2023-04-28T04:44:13;95684.59;;;2.54;100.00
20017;BME280;10169;42.664;23.610;2023-04-28T04:46:14;95684.69;;;2.75;100.00
20017;BME280;10169;42.664;23.610;2023-04-28T04:48:14;95682.22;;;2.88;100.00
20017;BME280;10169;42.664;23.610;2023-04-28T04:50:14;95690.53;;;2.92;100.00
20017;BME280;10169;42.664;23.610;2023-04-28T04:52:15;95688.91;;;2.91;100.00
20017;BME280;10169;42.664;23.610;2023-04-28T04:54:15;95676.72;;;3.19;100.00
20017;BME280;10169;42.664;23.610;2023-04-28T04:56:16;95690.31;;;3.58;100.00
20017;BME280;10169;42.664;23.610;2023-04-28T04:58:16;95683.59;;;3.77;100.00
20017;BME280;10169;42.664;23.610;2023-04-28T05:00:17;95688.44;;;4.01;100.00
20017;BME280;10169;42.664;23.610;2023-04-28T05:02:17;95694.53;;;4.02;100.00
20017;BME280;10169;42.664;23.610;2023-04-28T05:04:17;95691.78;;;4.10;100.00
20017;BME280;10169;42.664;23.610;2023-04-28T05:06:18;95692.97;;;4.35;100.00
20017;BME280;10169;42.664;23.610;2023-04-28T05:08:18;95686.44;;;4.52;100.00
20017;BME280;10169;42.664;23.610;2023-04-28T05:10:19;95698.88;;;4.71;100.00
20017;BME280;10169;42.664;23.610;2023-04-28T05:12:19;95691.81;;;4.72;100.00
20017;BME280;10169;42.664;23.610;2023-04-28T05:14:19;95692.13;;;4.90;100.00
20017;BME280;10169;42.664;23.610;2023-04-28T05:16:20;95694.19;;;5.01;100.00
20017;BME280;10169;42.664;23.610;2023-04-28T05:18:20;95687.81;;;5.23;100.00
20017;BME280;10169;42.664;23.610;2023-04-28T05:20:21;95692.56;;;5.54;100.00
20017;BME280;10169;42.664;23.610;2023-04-28T05:22:21;95686.09;;;5.69;100.00
20017;BME280;10169;42.664;23.610;2023-04-28T05:24:21;95690.41;;;5.77;100.00
20017;BME280;10169;42.664;23.610;2023-04-28T05:26:24;95687.63;;;5.85;100.00
20017;BME280;10169;42.664;23.610;2023-04-28T05:28:25;95688.03;;;6.02;100.00
20017;BME280;10169;42.664;23.610;2023-04-28T05:30:25;95690.88;;;6.13;100.00
20017;BME280;10169;42.664;23.610;2023-04-28T05:32:25;95684.78;;;5.87;100.00
20017;BME280;10169;42.664;23.610;2023-04-28T05:34:26;95691.88;;;5.93;100.00
20017;BME280;10169;42.664;23.610;2023-04-28T05:36:26;95692.69;;;6.00;100.00
20017;BME280;10169;42.664;23.610;2023-04-28T05:38:26;95699.63;;;6.20;100.00
20017;BME280;10169;42.664;23.610;2023-04-28T05:40:27;95694.34;;;6.20;100.00
20017;BME280;10169;42.664;23.610;2023-04-28T05:42:28;95695.34;;;6.00;100.00
20017;BME280;10169;42.664;23.610;2023-04-28T05:44:28;95696.97;;;6.20;100.00
20017;BME280;10169;42.664;23.610;2023-04-28T05:46:29;95695.75;;;6.29;100.00
20017;BME280;10169;42.664;23.610;2023-04-28T05:48:29;95694.13;;;6.68;100.00
20017;BME280;10169;42.664;23.610;2023-04-28T05:50:30;95689.00;;;6.86;100.00
20017;BME280;10169;42.664;23.610;2023-04-28T05:52:30;95694.66;;;6.96;100.00
20017;BME280;10169;42.664;23.610;2023-04-28T05:54:31;95693.03;;;7.01;100.00
20017;BME280;10169;42.664;23.610;2023-04-28T05:56:33;95695.50;;;6.83;100.00
20017;BME280;10169;42.664;23.610;2023-04-28T05:58:33;95697.31;;;6.83;100.00
20017;BME280;10169;42.664;23.610;2023-04-28T06:00:34;95697.75;;;6.67;100.00
20017;BME280;10169;42.664;23.610;2023-04-28T06:02:34;95702.59;;;6.83;100.00
20017;BME280;10169;42.664;23.610;2023-04-28T06:04:35;95703.63;;;6.95;100.00
20017;BME280;10169;42.664;23.610;2023-04-28T06:06:35;95698.50;;;6.93;100.00
20017;BME280;10169;42.664;23.610;2023-04-28T06:08:36;95703.19;;;6.91;100.00
20017;BME280;10169;42.664;23.610;2023-04-28T06:10:36;95694.84;;;7.01;100.00
20017;BME280;10169;42.664;23.610;2023-04-28T06:12:36;95699.63;;;7.30;100.00
20017;BME280;10169;42.664;23.610;2023-04-28T06:14:37;95699.81;;;7.35;100.00
20017;BME280;10169;42.664;23.610;2023-04-28T06:16:37;95700.84;;;7.27;99.62
20017;BME280;10169;42.664;23.610;2023-04-28T06:18:37;95695.88;;;7.51;97.04
20017;BME280;10169;42.664;23.610;2023-04-28T06:20:38;95695.38;;;7.67;96.77
20017;BME280;10169;42.664;23.610;2023-04-28T06:22:38;95701.47;;;7.67;96.20
20017;BME280;10169;42.664;23.610;2023-04-28T06:24:39;95693.78;;;7.66;91.98
20017;BME280;10169;42.664;23.610;2023-04-28T06:26:40;95697.34;;;7.84;78.73
20017;BME280;10169;42.664;23.610;2023-04-28T06:28:41;95699.53;;;8.19;73.64
20017;BME280;10169;42.664;23.610;2023-04-28T06:30:41;95700.03;;;8.09;69.43
20017;BME280;10169;42.664;23.610;2023-04-28T06:32:41;95702.69;;;8.09;68.24
20017;BME280;10169;42.664;23.610;2023-04-28T06:34:42;95699.63;;;8.05;72.46
20017;BME280;10169;42.664;23.610;2023-04-28T06:36:42;95696.28;;;8.48;73.45
20017;BME280;10169;42.664;23.610;2023-04-28T06:38:43;95691.97;;;8.53;70.33
20017;BME280;10169;42.664;23.610;2023-04-28T06:40:43;95693.22;;;8.51;68.46
20017;BME280;10169;42.664;23.610;2023-04-28T06:42:45;95697.53;;;8.45;66.16
20017;BME280;10169;42.664;23.610;2023-04-28T06:44:45;95696.97;;;8.61;66.55
20017;BME280;10169;42.664;23.610;2023-04-28T06:46:45;95699.22;;;8.64;65.43
20017;BME280;10169;42.664;23.610;2023-04-28T06:48:45;95695.19;;;8.80;66.44
20017;BME280;10169;42.664;23.610;2023-04-28T06:50:46;95695.97;;;8.62;63.88
20017;BME280;10169;42.664;23.610;2023-04-28T06:52:46;95693.41;;;8.92;62.90
20017;BME280;10169;42.664;23.610;2023-04-28T06:54:46;95687.78;;;9.07;64.28
20017;BME280;10169;42.664;23.610;2023-04-28T06:56:47;95694.91;;;9.42;64.68
20017;BME280;10169;42.664;23.610;2023-04-28T06:58:47;95693.81;;;9.50;63.08
20017;BME280;10169;42.664;23.610;2023-04-28T07:00:48;95675.69;;;9.47;60.97
20017;BME280;10169;42.664;23.610;2023-04-28T07:02:48;95686.91;;;9.79;59.76
20017;BME280;10169;42.664;23.610;2023-04-28T07:04:48;95681.38;;;9.62;58.42
20017;BME280;10169;42.664;23.610;2023-04-28T07:06:48;95683.53;;;10.01;58.47
20017;BME280;10169;42.664;23.610;2023-04-28T07:09:01;95678.03;;;9.85;57.74
20017;BME280;10169;42.664;23.610;2023-04-28T07:11:02;95684.72;;;9.58;58.51
20017;BME280;10169;42.664;23.610;2023-04-28T07:13:03;95686.03;;;9.19;59.57
20017;BME280;10169;42.664;23.610;2023-04-28T07:15:03;95686.28;;;9.29;59.34
20017;BME280;10169;42.664;23.610;2023-04-28T07:17:04;95684.22;;;9.49;59.10
20017;BME280;10169;42.664;23.610;2023-04-28T07:19:04;95686.44;;;9.52;60.80
20017;BME280;10169;42.664;23.610;2023-04-28T07:21:05;95686.81;;;9.85;60.64
20017;BME280;10169;42.664;23.610;2023-04-28T07:23:05;95688.22;;;10.17;60.21
20017;BME280;10169;42.664;23.610;2023-04-28T07:25:06;95682.00;;;9.46;55.41
20017;BME280;10169;42.664;23.610;2023-04-28T07:27:06;95682.13;;;9.69;57.19
20017;BME280;10169;42.664;23.610;2023-04-28T07:29:06;95685.19;;;10.14;60.24
20017;BME280;10169;42.664;23.610;2023-04-28T07:31:08;95689.09;;;10.11;60.30
20017;BME280;10169;42.664;23.610;2023-04-28T07:33:08;95675.44;;;10.38;60.58
20017;BME280;10169;42.664;23.610;2023-04-28T07:35:08;95679.81;;;10.32;58.40
20017;BME280;10169;42.664;23.610;2023-04-28T07:37:08;95689.50;;;10.38;56.58
20017;BME280;10169;42.664;23.610;2023-04-28T07:39:10;95680.25;;;10.29;54.91
20017;BME280;10169;42.664;23.610;2023-04-28T07:41:11;95684.56;;;10.42;54.57
20017;BME280;10169;42.664;23.610;2023-04-28T07:43:11;95683.19;;;10.51;53.93
20017;BME280;10169;42.664;23.610;2023-04-28T07:45:13;95683.19;;;10.51;53.91
20017;BME280;10169;42.664;23.610;2023-04-28T07:47:13;95686.78;;;10.79;54.04
20017;BME280;10169;42.664;23.610;2023-04-28T07:49:13;95688.75;;;11.07;52.26
20017;BME280;10169;42.664;23.610;2023-04-28T07:51:14;95682.63;;;11.07;53.33
20017;BME280;10169;42.664;23.610;2023-04-28T07:53:14;95687.00;;;10.43;54.57
20017;BME280;10169;42.664;23.610;2023-04-28T07:55:14;95675.91;;;10.46;54.37
20017;BME280;10169;42.664;23.610;2023-04-28T07:57:15;95681.84;;;10.18;51.37
20017;BME280;10169;42.664;23.610;2023-04-28T07:59:15;95683.59;;;10.13;51.16
20017;BME280;10169;42.664;23.610;2023-04-28T08:01:15;95679.06;;;10.78;50.92
20017;BME280;10169;42.664;23.610;2023-04-28T08:03:16;95684.72;;;11.05;53.42
20017;BME280;10169;42.664;23.610;2023-04-28T08:05:16;95677.63;;;11.22;52.92
20017;BME280;10169;42.664;23.610;2023-04-28T08:07:16;95677.34;;;11.46;52.63
20017;BME280;10169;42.664;23.610;2023-04-28T08:09:17;95681.78;;;11.18;51.05
20017;BME280;10169;42.664;23.610;2023-04-28T08:11:17;95677.88;;;10.97;52.16
20017;BME280;10169;42.664;23.610;2023-04-28T08:13:17;95677.19;;;11.02;51.63
20017;BME280;10169;42.664;23.610;2023-04-28T08:15:18;95676.03;;;11.21;49.11
20017;BME280;10169;42.664;23.610;2023-04-28T08:17:18;95660.53;;;11.57;49.49
20017;BME280;10169;42.664;23.610;2023-04-28T08:19:18;95665.19;;;11.39;51.49
20017;BME280;10169;42.664;23.610;2023-04-28T08:21:19;95669.19;;;11.02;49.62
20017;BME280;10169;42.664;23.610;2023-04-28T08:23:19;95666.03;;;11.28;50.27
20017;BME280;10169;42.664;23.610;2023-04-28T08:25:20;95669.53;;;11.17;48.67
20017;BME280;10169;42.664;23.610;2023-04-28T08:27:20;95660.16;;;11.65;50.39
20017;BME280;10169;42.664;23.610;2023-04-28T08:29:22;95663.53;;;12.17;49.77
20017;BME280;10169;42.664;23.610;2023-04-28T08:31:22;95646.06;;;11.14;50.06
20017;BME280;10169;42.664;23.610;2023-04-28T08:33:23;95657.84;;;11.29;51.26
20017;BME280;10169;42.664;23.610;2023-04-28T08:35:23;95658.09;;;11.16;51.02
20017;BME280;10169;42.664;23.610;2023-04-28T08:37:24;95656.22;;;11.05;51.26
20017;BME280;10169;42.664;23.610;2023-04-28T08:39:25;95653.97;;;11.37;51.58
20017;BME280;10169;42.664;23.610;2023-04-28T08:41:26;95651.78;;;12.02;50.60
20017;BME280;10169;42.664;23.610;2023-04-28T08:43:28;95650.53;;;12.21;49.11
20017;BME280;10169;42.664;23.610;2023-04-28T08:45:29;95644.88;;;12.17;48.17
20017;BME280;10169;42.664;23.610;2023-04-28T08:47:34;95646.34;;;12.25;48.81
20017;BME280;10169;42.664;23.610;2023-04-28T08:49:35;95640.41;;;12.06;50.06
20017;BME280;10169;42.664;23.610;2023-04-28T08:51:37;95642.78;;;12.36;49.89
20017;BME280;10169;42.664;23.610;2023-04-28T08:53:43;95632.63;;;12.50;51.18
20017;BME280;10169;42.664;23.610;2023-04-28T08:55:44;95635.66;;;12.08;50.39
20017;BME280;10169;42.664;23.610;2023-04-28T08:57:45;95638.97;;;12.15;49.35
20017;BME280;10169;42.664;23.610;2023-04-28T08:59:47;95641.63;;;12.15;48.53
20017;BME280;10169;42.664;23.610;2023-04-28T09:01:48;95639.06;;;12.20;47.90
20017;BME280;10169;42.664;23.610;2023-04-28T09:03:48;95626.31;;;12.22;47.10
20017;BME280;10169;42.664;23.610;2023-04-28T09:05:49;95636.88;;;12.67;48.12
20017;BME280;10169;42.664;23.610;2023-04-28T09:07:49;95636.09;;;13.22;47.01
20017;BME280;10169;42.664;23.610;2023-04-28T09:10:01;95635.06;;;12.89;45.67
20017;BME280;10169;42.664;23.610;2023-04-28T09:12:11;95628.78;;;12.95;47.20
20017;BME280;10169;42.664;23.610;2023-04-28T09:14:11;95630.84;;;13.32;45.70
20017;BME280;10169;42.664;23.610;2023-04-28T09:16:12;95623.47;;;13.17;44.79
20017;BME280;10169;42.664;23.610;2023-04-28T09:18:13;95624.19;;;13.29;43.75
20017;BME280;10169;42.664;23.610;2023-04-28T09:20:21;95624.81;;;13.63;44.33
20017;BME280;10169;42.664;23.610;2023-04-28T09:22:26;95623.09;;;13.73;43.97
20017;BME280;10169;42.664;23.610;2023-04-28T09:24:28;95625.03;;;12.96;45.40
20017;BME280;10169;42.664;23.610;2023-04-28T09:26:41;95623.28;;;12.85;46.72
20017;BME280;10169;42.664;23.610;2023-04-28T09:28:47;95615.66;;;13.11;44.11
20017;BME280;10169;42.664;23.610;2023-04-28T09:30:47;95612.19;;;12.93;43.62
20017;BME280;10169;42.664;23.610;2023-04-28T09:33:02;95616.97;;;13.30;45.10
20017;BME280;10169;42.664;23.610;2023-04-28T09:35:03;95604.50;;;13.35;44.22
20017;BME280;10169;42.664;23.610;2023-04-28T09:37:13;95605.66;;;13.23;44.84
20017;BME280;10169;42.664;23.610;2023-04-28T09:39:26;95595.69;;;13.35;44.78
20017;BME280;10169;42.664;23.610;2023-04-28T09:41:40;95595.22;;;13.64;43.43
20017;BME280;10169;42.664;23.610;2023-04-28T09:43:41;95596.47;;;13.57;45.43
20017;BME280;10169;42.664;23.610;2023-04-28T09:45:41;95593.19;;;14.03;45.71
20017;BME280;10169;42.664;23.610;2023-04-28T09:47:43;95592.53;;;13.91;43.66
20017;BME280;10169;42.664;23.610;2023-04-28T09:49:54;95583.00;;;13.47;46.25
20017;BME280;10169;42.664;23.610;2023-04-28T09:52:01;95588.25;;;13.63;45.48
20017;BME280;10169;42.664;23.610;2023-04-28T09:54:10;95585.53;;;13.85;46.17
20017;BME280;10169;42.664;23.610;2023-04-28T09:56:11;95582.34;;;13.88;44.54
20017;BME280;10169;42.664;23.610;2023-04-28T09:58:12;95582.88;;;13.85;45.29
20017;BME280;10169;42.664;23.610;2023-04-28T10:00:13;95575.84;;;13.52;43.13
20017;BME280;10169;42.664;23.610;2023-04-28T10:02:17;95578.63;;;13.62;44.66
20017;BME280;10169;42.664;23.610;2023-04-28T10:04:18;95569.91;;;13.72;45.11
20017;BME280;10169;42.664;23.610;2023-04-28T10:06:18;95569.31;;;13.92;45.86
20017;BME280;10169;42.664;23.610;2023-04-28T10:08:19;95570.09;;;14.19;44.71
20017;BME280;10169;42.664;23.610;2023-04-28T10:10:20;95564.66;;;13.82;43.87
20017;BME280;10169;42.664;23.610;2023-04-28T10:12:22;95565.69;;;13.49;45.06
20017;BME280;10169;42.664;23.610;2023-04-28T10:14:22;95564.06;;;13.75;45.41
20017;BME280;10169;42.664;23.610;2023-04-28T10:16:23;95550.41;;;13.71;44.13
20017;BME280;10169;42.664;23.610;2023-04-28T10:18:24;95560.22;;;13.93;44.65
20017;BME280;10169;42.664;23.610;2023-04-28T10:20:24;95563.22;;;14.01;43.42
20017;BME280;10169;42.664;23.610;2023-04-28T10:24:49;95560.19;;;14.19;42.35
20017;BME280;10169;42.664;23.610;2023-04-28T10:27:03;95559.34;;;14.45;43.25
20017;BME280;10169;42.664;23.610;2023-04-28T10:29:04;95549.38;;;14.78;45.55
20017;BME280;10169;42.664;23.610;2023-04-28T10:31:13;95559.97;;;14.58;43.99
20017;BME280;10169;42.664;23.610;2023-04-28T10:37:25;95551.69;;;14.64;42.55
20017;BME280;10169;42.664;23.610;2023-04-28T10:39:48;95548.66;;;15.54;41.35